createdAt,value
2023-02-01T00:00:16.475Z,7.85
2023-02-01T00:03:43.404Z,20.60
2023-02-01T00:06:49.267Z,13.00
2023-02-01T00:10:01.847Z,11.77
2023-02-01T00:13:07.548Z,11.82
2023-02-01T00:16:14.169Z,9.63
2023-02-01T00:19:21.750Z,13.73
2023-02-01T00:22:27.863Z,17.13
2023-02-01T00:25:36.122Z,13.15
2023-02-01T00:28:41.642Z,13.40
2023-02-01T00:31:49.396Z,11.77
2023-02-01T00:34:55.236Z,15.07
2023-02-01T00:38:01.555Z,11.80
2023-02-01T00:41:11.424Z,9.20
2023-02-01T00:44:17.924Z,17.65
2023-02-01T00:47:24.755Z,9.85
2023-02-01T00:50:30.392Z,13.80
2023-02-01T00:53:36.886Z,8.90
2023-02-01T00:56:44.534Z,18.40
2023-02-01T00:59:52.101Z,17.40
2023-02-01T01:02:59.065Z,8.02
2023-02-01T01:06:10.541Z,13.82
2023-02-01T01:09:19.386Z,12.68
2023-02-01T01:12:28.123Z,15.07
2023-02-01T01:15:33.342Z,11.07
2023-02-01T01:18:38.933Z,14.02
2023-02-01T01:21:49.301Z,18.05
2023-02-01T01:24:54.995Z,12.05
2023-02-01T01:28:06.009Z,16.17
2023-02-01T01:31:15.408Z,8.70
2023-02-01T01:34:20.700Z,14.93
2023-02-01T01:37:29.080Z,20.90
2023-02-01T01:40:35.221Z,11.55
2023-02-01T01:43:58.063Z,11.75
2023-02-01T01:47:03.574Z,9.93
2023-02-01T01:50:11.120Z,15.63
2023-02-01T01:53:18.624Z,12.75
2023-02-01T01:56:24.463Z,14.02
2023-02-01T01:59:33.168Z,6.95
2023-02-01T02:02:39.105Z,13.27
2023-02-01T02:05:46.188Z,16.95
2023-02-01T02:08:53.783Z,10.85
2023-02-01T02:11:59.061Z,10.60
2023-02-01T02:15:09.131Z,10.80
2023-02-01T02:18:19.850Z,10.82
2023-02-01T02:21:34.984Z,9.52
2023-02-01T02:24:58.523Z,11.45
2023-02-01T02:28:09.658Z,13.18
2023-02-01T02:31:24.717Z,13.48
2023-02-01T02:34:35.463Z,13.95
2023-02-01T02:37:42.795Z,11.90
2023-02-01T02:40:51.069Z,10.30
2023-02-01T02:44:12.321Z,16.33
2023-02-01T02:47:29.465Z,8.32
2023-02-01T02:50:51.717Z,12.23
2023-02-01T02:54:13.034Z,17.70
2023-02-01T02:57:31.971Z,12.20
2023-02-01T03:00:50.428Z,18.23
2023-02-01T03:04:18.612Z,14.00
2023-02-01T03:07:38.880Z,12.80
2023-02-01T03:10:52.929Z,16.88
2023-02-01T03:13:58.600Z,13.52
2023-02-01T03:17:06.155Z,11.80
2023-02-01T03:20:14.660Z,10.82
2023-02-01T03:23:21.828Z,12.07
2023-02-01T03:26:31.413Z,12.10
2023-02-01T03:29:39.901Z,16.17
2023-02-01T03:33:00.467Z,12.82
2023-02-01T03:36:11.165Z,15.93
2023-02-01T03:39:21.881Z,7.05
2023-02-01T03:42:32.793Z,10.88
2023-02-01T03:45:44.139Z,14.70
2023-02-01T03:48:49.397Z,13.98
2023-02-01T03:51:55.687Z,10.02
2023-02-01T03:55:03.128Z,5.25
2023-02-01T03:58:13.942Z,8.63
2023-02-01T04:01:24.031Z,17.65
2023-02-01T04:04:30.752Z,9.18
2023-02-01T04:07:37.323Z,12.13
2023-02-01T04:10:43.323Z,10.02
2023-02-01T04:13:51.393Z,15.80
2023-02-01T04:16:57.387Z,9.25
2023-02-01T04:20:02.435Z,11.35
2023-02-01T04:23:08.275Z,8.57
2023-02-01T04:26:13.699Z,12.77
2023-02-01T04:29:22.389Z,15.95
2023-02-01T04:32:27.484Z,9.43
2023-02-01T04:35:33.561Z,10.88
2023-02-01T04:38:39.063Z,14.70
2023-02-01T04:41:44.851Z,16.23
2023-02-01T04:44:53.349Z,8.35
2023-02-01T04:48:00.477Z,8.20
2023-02-01T04:51:06.099Z,9.65
2023-02-01T04:54:15.613Z,10.82
2023-02-01T04:57:23.856Z,6.95
2023-02-01T05:00:33.015Z,9.43
2023-02-01T05:03:38.311Z,10.88
2023-02-01T05:06:47.061Z,15.40
2023-02-01T05:09:52.353Z,11.02
2023-02-01T05:13:10.014Z,8.02
2023-02-01T05:16:18.136Z,9.70
2023-02-01T05:19:26.103Z,10.85
2023-02-01T05:22:31.443Z,13.43
2023-02-01T05:25:39.800Z,7.15
2023-02-01T05:28:45.216Z,18.70
2023-02-01T05:31:53.976Z,4.15
2023-02-01T05:35:00.404Z,9.93
2023-02-01T05:38:05.714Z,18.80
2023-02-01T05:41:10.752Z,9.50
2023-02-01T05:44:19.916Z,10.40
2023-02-01T05:47:28.537Z,11.15
2023-02-01T05:50:33.904Z,14.57
2023-02-01T05:53:39.139Z,10.90
2023-02-01T05:56:45.211Z,8.05
2023-02-01T05:59:56.443Z,10.23
2023-02-01T06:03:05.226Z,14.35
2023-02-01T06:06:10.313Z,17.48
2023-02-01T06:09:15.620Z,16.30
2023-02-01T06:12:24.067Z,14.07
2023-02-01T06:15:32.379Z,12.57
2023-02-01T06:18:42.618Z,11.20
2023-02-01T06:21:48.793Z,11.35
2023-02-01T06:24:54.400Z,8.20
2023-02-01T06:28:00.416Z,14.50
2023-02-01T06:31:07.939Z,10.38
2023-02-01T06:34:17.518Z,8.80
2023-02-01T06:37:24.251Z,10.98
2023-02-01T06:40:34.473Z,13.75
2023-02-01T06:43:41.469Z,14.00
2023-02-01T06:46:49.041Z,11.98
2023-02-01T06:49:57.244Z,8.73
2023-02-01T06:53:03.213Z,4.68
2023-02-01T06:56:08.920Z,11.52
2023-02-01T06:59:16.551Z,10.20
2023-02-01T07:02:22.614Z,7.95
2023-02-01T07:05:31.094Z,7.88
2023-02-01T07:08:36.906Z,7.38
2023-02-01T07:11:44.420Z,13.45
2023-02-01T07:14:49.742Z,11.75
2023-02-01T07:17:56.065Z,8.75
2023-02-01T07:21:06.107Z,7.65
2023-02-01T07:24:11.523Z,10.93
2023-02-01T07:27:16.695Z,9.05
2023-02-01T07:30:24.108Z,5.38
2023-02-01T07:33:31.577Z,8.60
2023-02-01T07:36:43.342Z,12.77
2023-02-01T07:39:48.808Z,4.22
2023-02-01T07:42:57.815Z,10.25
2023-02-01T07:46:03.544Z,10.88
2023-02-01T07:49:10.173Z,6.72
2023-02-01T07:52:20.162Z,9.63
2023-02-01T07:55:25.986Z,9.85
2023-02-01T07:58:34.661Z,7.97
2023-02-01T08:01:42.426Z,11.77
2023-02-01T08:04:49.779Z,10.43
2023-02-01T08:07:59.020Z,10.63
2023-02-01T08:11:05.506Z,12.07
2023-02-01T08:14:11.269Z,15.50
2023-02-01T08:17:16.112Z,12.65
2023-02-01T08:20:23.403Z,13.15
2023-02-01T08:23:31.484Z,8.65
2023-02-01T08:26:37.246Z,12.77
2023-02-01T08:29:42.294Z,13.95
2023-02-01T08:32:51.400Z,10.65
2023-02-01T08:35:56.514Z,9.32
2023-02-01T08:39:10.117Z,8.98
2023-02-01T08:42:27.680Z,14.10
2023-02-01T08:45:33.984Z,15.00
2023-02-01T08:48:39.942Z,22.33
2023-02-01T08:51:47.485Z,18.20
2023-02-01T08:54:55.584Z,12.02
2023-02-01T08:58:02.158Z,18.27
2023-02-01T09:01:07.666Z,11.55
2023-02-01T09:04:13.489Z,17.75
2023-02-01T09:07:20.056Z,12.30
2023-02-01T09:10:35.012Z,11.75
2023-02-01T09:13:43.116Z,11.23
2023-02-01T09:16:53.889Z,10.90
2023-02-01T09:20:01.536Z,13.82
2023-02-01T09:23:08.547Z,17.60
2023-02-01T09:26:19.793Z,11.77
2023-02-01T09:29:30.736Z,11.30
2023-02-01T09:32:36.313Z,11.50
2023-02-01T09:35:43.637Z,13.63
2023-02-01T09:38:53.332Z,13.25
2023-02-01T09:42:06.472Z,14.35
2023-02-01T09:45:21.836Z,9.48
2023-02-01T09:48:30.955Z,9.02
2023-02-01T09:51:38.843Z,14.07
2023-02-01T09:54:46.943Z,10.98
2023-02-01T09:57:58.364Z,8.35
2023-02-01T10:01:15.283Z,2.13
2023-02-01T10:04:21.614Z,8.30
2023-02-01T10:07:31.836Z,8.55
2023-02-01T10:10:39.730Z,6.07
2023-02-01T10:13:52.799Z,10.07
2023-02-01T10:17:02.207Z,8.45
2023-02-01T10:20:15.740Z,5.80
2023-02-01T10:23:34.366Z,9.90
2023-02-01T10:26:45.908Z,4.00
2023-02-01T10:29:56.456Z,1.75
2023-02-01T10:33:05.774Z,4.72
2023-02-01T10:36:18.467Z,6.50
2023-02-01T10:39:28.798Z,5.88
2023-02-01T10:42:36.276Z,6.47
2023-02-01T10:45:45.293Z,4.57
2023-02-01T10:48:55.662Z,6.60
2023-02-01T10:52:07.285Z,4.05
2023-02-01T10:55:27.843Z,8.38
2023-02-01T10:58:37.646Z,6.65
2023-02-01T11:01:46.629Z,6.65
2023-02-01T11:04:52.538Z,12.93
2023-02-01T11:08:01.393Z,5.65
2023-02-01T11:11:07.849Z,3.90
2023-02-01T11:14:17.792Z,6.88
2023-02-01T11:17:32.346Z,5.00
2023-02-01T11:20:42.301Z,7.55
2023-02-01T11:23:48.705Z,3.97
2023-02-01T11:27:00.159Z,1.95
2023-02-01T11:30:07.095Z,7.07
2023-02-01T11:33:17.638Z,4.95
2023-02-01T11:36:28.820Z,6.05
2023-02-01T11:39:36.120Z,2.22
2023-02-01T11:42:56.946Z,2.10
2023-02-01T11:46:03.660Z,2.42
2023-02-01T11:49:24.253Z,3.03
2023-02-01T11:52:37.285Z,4.80
2023-02-01T11:55:46.994Z,3.72
2023-02-01T11:59:01.834Z,2.88
2023-02-01T12:02:17.282Z,4.30
2023-02-01T12:05:29.157Z,4.47
2023-02-01T12:08:46.923Z,5.18
2023-02-01T12:12:00.709Z,2.35
2023-02-01T12:15:20.289Z,5.70
2023-02-01T12:18:37.963Z,6.03
2023-02-01T12:21:53.299Z,7.03
2023-02-01T12:25:18.851Z,3.33
2023-02-01T12:28:41.467Z,1.25
2023-02-01T12:31:50.354Z,4.25
2023-02-01T12:35:10.624Z,3.30
2023-02-01T12:38:27.782Z,1.30
2023-02-01T12:41:44.288Z,3.65
2023-02-01T12:44:57.623Z,3.85
2023-02-01T12:48:05.433Z,3.05
2023-02-01T12:51:12.475Z,2.13
2023-02-01T12:54:24.288Z,5.03
2023-02-01T12:57:31.660Z,3.95
2023-02-01T13:00:41.950Z,2.83
2023-02-01T13:04:08.859Z,5.25
2023-02-01T13:07:17.923Z,4.88
2023-02-01T13:10:39.014Z,4.03
2023-02-01T13:13:50.590Z,4.70
2023-02-01T13:16:58.666Z,4.80
2023-02-01T13:20:09.328Z,3.72
2023-02-01T13:23:30.198Z,7.72
2023-02-01T13:26:47.218Z,6.45
2023-02-01T13:29:55.667Z,6.10
2023-02-01T13:33:53.975Z,6.93
2023-02-01T13:36:50.537Z,5.70
2023-02-01T13:40:21.549Z,7.60
2023-02-01T13:43:33.994Z,5.47
2023-02-01T13:46:45.353Z,5.13
2023-02-01T13:49:52.614Z,10.48
2023-02-01T13:52:59.012Z,4.22
2023-02-01T13:56:07.417Z,3.28
2023-02-01T13:59:36.260Z,3.42
2023-02-01T14:03:05.923Z,3.30
2023-02-01T14:06:20.748Z,2.38
2023-02-01T14:09:47.382Z,6.50
2023-02-01T14:12:53.713Z,3.08
2023-02-01T14:16:13.990Z,7.25
2023-02-01T14:19:26.504Z,5.25
2023-02-01T14:22:37.265Z,5.25
2023-02-01T14:25:45.652Z,3.70
2023-02-01T14:28:56.368Z,7.22
2023-02-01T14:32:07.287Z,3.55
2023-02-01T14:35:28.177Z,2.92
2023-02-01T14:38:35.148Z,2.60
2023-02-01T14:41:44.651Z,5.50
2023-02-01T14:44:59.216Z,4.32
2023-02-01T14:48:24.012Z,4.65
2023-02-01T14:51:35.783Z,7.18
2023-02-01T14:54:46.961Z,5.63
2023-02-01T14:58:02.684Z,3.78
2023-02-01T15:01:10.498Z,3.72
2023-02-01T15:04:18.401Z,8.40
2023-02-01T15:07:29.468Z,5.10
2023-02-01T15:10:47.283Z,9.45
2023-02-01T15:13:55.664Z,5.60
2023-02-01T15:17:01.716Z,6.75
2023-02-01T15:20:18.955Z,7.68
2023-02-01T15:23:29.261Z,7.32
2023-02-01T15:26:39.124Z,7.03
2023-02-01T15:29:44.547Z,5.80
2023-02-01T15:32:51.045Z,10.02
2023-02-01T15:36:01.467Z,6.05
2023-02-01T15:39:35.858Z,14.45
2023-02-01T15:42:54.569Z,10.88
2023-02-01T15:46:07.102Z,5.15
2023-02-01T15:49:21.487Z,9.68
2023-02-01T15:52:29.284Z,3.63
2023-02-01T15:55:46.957Z,4.15
2023-02-01T15:58:58.679Z,3.88
2023-02-01T16:02:06.087Z,4.35
2023-02-01T16:05:30.993Z,7.32
2023-02-01T16:08:38.760Z,6.50
2023-02-01T16:11:45.601Z,7.35
2023-02-01T16:14:54.892Z,8.82
2023-02-01T16:18:00.471Z,5.50
2023-02-01T16:21:10.668Z,5.55
2023-02-01T16:24:17.061Z,6.13
2023-02-01T16:27:26.970Z,5.60
2023-02-01T16:30:36.458Z,4.82
2023-02-01T16:33:44.009Z,7.50
2023-02-01T16:36:55.583Z,11.85
2023-02-01T16:40:03.813Z,8.73
2023-02-01T16:43:15.902Z,6.32
2023-02-01T16:50:17.175Z,5.45
2023-02-01T16:53:31.778Z,4.45
2023-02-01T16:56:43.890Z,4.13
2023-02-01T16:59:53.309Z,2.72
2023-02-01T17:03:00.003Z,3.35
2023-02-01T17:06:10.078Z,3.10
2023-02-01T17:09:16.152Z,3.95
2023-02-01T17:12:27.050Z,4.00
2023-02-01T17:15:39.459Z,4.32
2023-02-01T17:18:46.468Z,7.28
2023-02-01T17:25:40.336Z,7.85
2023-02-01T17:28:45.923Z,4.13
2023-02-01T17:31:56.462Z,6.15
2023-02-01T17:35:03.953Z,5.63
2023-02-01T17:38:13.709Z,3.17
2023-02-01T17:41:20.188Z,2.45
2023-02-01T17:44:25.869Z,4.30
2023-02-01T17:47:30.939Z,2.05
2023-02-01T17:50:41.105Z,4.68
2023-02-01T17:53:50.535Z,6.40
2023-02-01T17:56:56.804Z,6.57
2023-02-01T18:00:01.790Z,5.88
2023-02-01T18:03:07.098Z,3.17
2023-02-01T18:06:16.420Z,6.35
2023-02-01T18:09:26.468Z,6.40
2023-02-01T18:12:31.688Z,5.00
2023-02-01T18:15:37.659Z,9.82
2023-02-01T18:18:42.803Z,3.85
2023-02-01T18:21:48.909Z,3.80
2023-02-01T18:24:58.033Z,3.60
2023-02-01T18:28:04.532Z,4.93
2023-02-01T18:31:13.833Z,3.42
2023-02-01T18:34:22.684Z,4.97
2023-02-01T18:37:27.960Z,4.95
2023-02-01T18:40:39.921Z,10.75
2023-02-01T18:43:45.199Z,3.75
2023-02-01T18:46:50.799Z,6.22
2023-02-01T18:49:56.016Z,6.93
2023-02-01T18:53:02.330Z,5.93
2023-02-01T18:56:10.657Z,10.88
2023-02-01T18:59:17.618Z,9.13
2023-02-01T19:02:23.466Z,8.38
2023-02-01T19:05:30.910Z,8.43
2023-02-01T19:08:35.846Z,5.93
2023-02-01T19:11:47.439Z,5.65
2023-02-01T19:14:52.919Z,5.10
2023-02-01T19:17:58.954Z,8.07
2023-02-01T19:21:06.131Z,8.60
2023-02-01T19:24:13.002Z,9.68
2023-02-01T19:27:21.426Z,11.30
2023-02-01T19:30:28.778Z,12.32
2023-02-01T19:33:33.672Z,12.90
2023-02-01T19:36:42.618Z,12.93
2023-02-01T19:39:49.422Z,11.32
2023-02-01T19:42:57.621Z,7.00
2023-02-01T19:46:03.361Z,3.10
2023-02-01T19:49:12.326Z,10.10
2023-02-01T19:52:17.780Z,7.00
2023-02-01T19:55:23.361Z,5.60
2023-02-01T19:58:31.176Z,9.10
2023-02-01T20:01:37.767Z,5.88
2023-02-01T20:04:43.754Z,7.20
2023-02-01T20:07:49.135Z,9.30
2023-02-01T20:10:54.737Z,14.13
2023-02-01T20:14:07.895Z,12.15
2023-02-01T20:17:23.434Z,9.93
2023-02-01T20:20:29.443Z,8.25
2023-02-01T20:23:40.098Z,8.98
2023-02-01T20:26:49.416Z,7.40
2023-02-01T20:30:00.433Z,14.25
2023-02-01T20:33:17.988Z,11.60
2023-02-01T20:36:31.526Z,15.20
2023-02-01T20:39:40.767Z,14.07
2023-02-01T20:42:48.106Z,10.88
2023-02-01T20:45:57.736Z,12.90
2023-02-01T20:49:06.456Z,14.60
2023-02-01T20:52:12.211Z,18.55
2023-02-01T20:55:17.172Z,7.43
2023-02-01T20:58:23.119Z,12.93
2023-02-01T21:01:30.985Z,16.42
2023-02-01T21:04:53.978Z,12.98
2023-02-01T21:08:01.810Z,9.75
2023-02-01T21:11:09.510Z,13.90
2023-02-01T21:14:15.027Z,11.48
2023-02-01T21:17:30.927Z,13.27
2023-02-01T21:27:49.499Z,9.67
2023-02-01T21:30:58.894Z,13.10
2023-02-01T21:34:21.521Z,15.80
2023-02-01T21:37:28.959Z,8.13
2023-02-01T21:41:00.591Z,10.55
2023-02-01T21:44:31.586Z,15.30
2023-02-01T21:51:43.164Z,9.80
2023-02-01T21:54:59.676Z,22.25
2023-02-01T21:58:13.279Z,11.73
2023-02-01T22:01:36.422Z,13.10
2023-02-01T22:04:44.194Z,10.70
2023-02-01T22:07:54.242Z,9.73
2023-02-01T22:11:08.234Z,15.27
2023-02-01T22:14:16.715Z,13.85
2023-02-01T22:17:24.762Z,9.85
2023-02-01T22:20:34.847Z,20.02
2023-02-01T22:23:46.819Z,11.60
2023-02-01T22:26:55.256Z,14.30
2023-02-01T22:30:00.858Z,18.10
2023-02-01T22:33:13.702Z,14.63
2023-02-01T22:36:21.805Z,8.35
2023-02-01T22:39:38.313Z,11.63
2023-02-01T22:42:47.367Z,9.02
2023-02-01T22:45:56.213Z,12.93
2023-02-01T22:49:06.941Z,16.70
2023-02-01T22:52:17.782Z,10.13
2023-02-01T22:55:26.157Z,19.67
2023-02-01T22:58:36.125Z,16.15
2023-02-01T23:01:41.512Z,12.52
2023-02-01T23:04:48.463Z,17.70
2023-02-01T23:07:59.516Z,13.50
2023-02-01T23:11:14.033Z,14.30
2023-02-01T23:14:23.370Z,15.15
2023-02-01T23:17:29.910Z,9.52
2023-02-01T23:20:36.490Z,14.13
2023-02-01T23:23:44.526Z,10.60
2023-02-01T23:26:52.434Z,15.07
2023-02-01T23:30:01.943Z,9.20
2023-02-01T23:33:07.570Z,10.32
2023-02-01T23:36:16.297Z,13.30
2023-02-01T23:39:22.459Z,13.27
2023-02-01T23:42:33.982Z,12.27
2023-02-01T23:45:42.999Z,12.15
2023-02-01T23:52:19.297Z,8.15
2023-02-01T23:55:32.914Z,10.75
2023-02-01T23:58:55.383Z,15.88
